Time;durP1;ratioP1;P1;durP2;ratioP2;P2;SDS_P1;SDS_P2;PMS_P1;PMS_P2;Temp;Humidity;BMP_temperature;BMP_pressure;BME280_temperature;BME280_humidity;BME280_pressure;Samples;Min_cycle;Max_cycle;Signal;HPM_P1;HPM_P2
2022/06/29 00:01:39;;;;;;;4.63;4.40;;;;;;;-141.48;100.00;69781.59;5252822;28;20104;-80
2022/06/29 00:04:09;;;;;;;4.15;3.95;;;;;;;-141.48;100.00;69781.59;5252257;28;20103;-80
2022/06/29 00:06:39;;;;;;;5.30;4.72;;;;;;;-141.48;100.00;69781.59;5252896;28;20032;-80
2022/06/29 00:09:10;;;;;;;3.88;3.67;;;;;;;-141.48;100.00;69781.59;5252557;28;20103;-80
2022/06/29 00:11:40;;;;;;;4.20;4.00;;;;;;;-141.48;100.00;69781.59;5252282;28;20016;-81
2022/06/29 00:14:11;;;;;;;4.28;4.07;;;;;;;-141.48;100.00;69781.59;5251651;28;20021;-81
2022/06/29 00:16:41;;;;;;;4.28;4.07;;;;;;;-141.48;100.00;69781.59;5255297;28;20466;-79
2022/06/29 00:19:12;;;;;;;5.32;5.03;;;;;;;-141.48;100.00;69781.59;5251929;28;20497;-81
2022/06/29 00:21:42;;;;;;;6.22;4.80;;;;;;;-141.48;100.00;69781.59;5254671;28;20025;-81
2022/06/29 00:24:13;;;;;;;4.40;4.13;;;;;;;-141.48;100.00;69781.59;5252111;28;20478;-82
2022/06/29 00:26:43;;;;;;;4.03;3.83;;;;;;;-141.48;100.00;69781.59;5253360;28;20028;-80
2022/06/29 00:29:13;;;;;;;4.03;3.70;;;;;;;-141.48;100.00;69781.59;5252894;28;20514;-81
2022/06/29 00:31:44;;;;;;;4.97;4.70;;;;;;;-141.48;100.00;69781.59;5254211;28;20086;-82
2022/06/29 00:34:14;;;;;;;7.15;5.50;;;;;;;-141.48;100.00;69781.59;5254204;28;20025;-80
2022/06/29 00:36:45;;;;;;;4.90;4.60;;;;;;;-141.48;100.00;69781.59;5256116;28;20028;-80
2022/06/29 00:39:16;;;;;;;5.70;5.18;;;;;;;-141.48;100.00;69781.59;5258454;28;20095;-82
2022/06/29 00:41:46;;;;;;;5.03;4.78;;;;;;;-141.48;100.00;69781.59;5254262;28;20016;-82
2022/06/29 00:44:18;;;;;;;5.13;4.82;;;;;;;-141.48;100.00;69781.59;5255293;28;20060;-79
2022/06/29 00:46:50;;;;;;;4.25;3.90;;;;;;;-141.48;100.00;69781.59;5255753;28;20668;-82
2022/06/29 00:49:23;;;;;;;5.40;5.00;;;;;;;-141.48;100.00;69781.59;5254208;28;20078;-82
2022/06/29 00:52:09;;;;;;;11.60;4.90;;;;;;;-141.48;100.00;69781.59;5254306;28;20119;-82
2022/06/29 00:54:45;;;;;;;4.47;4.15;;;;;;;-141.48;100.00;69781.59;5254370;28;20035;-78
2022/06/29 00:57:21;;;;;;;5.50;5.03;;;;;;;-141.48;100.00;69781.59;5254547;28;20029;-81
2022/06/29 00:59:55;;;;;;;4.93;4.63;;;;;;;-141.48;100.00;69781.59;5254433;28;20024;-82
2022/06/29 01:02:34;;;;;;;5.78;5.47;;;;;;;-141.48;100.00;69781.59;5254374;28;20028;-82
2022/06/29 01:05:06;;;;;;;5.57;5.28;;;;;;;-141.48;100.00;69781.59;5252747;28;20110;-81
2022/06/29 01:07:36;;;;;;;5.50;5.20;;;;;;;-141.48;100.00;69781.59;5255054;28;20038;-80
2022/06/29 01:10:07;;;;;;;5.28;4.88;;;;;;;-141.48;100.00;69781.59;5258323;28;20016;-82
2022/06/29 01:12:38;;;;;;;9.35;5.72;;;;;;;-141.48;100.00;69781.59;5258003;28;20032;-82
2022/06/29 01:15:09;;;;;;;5.65;5.25;;;;;;;-141.48;100.00;69781.59;5257681;28;20398;-82
2022/06/29 01:17:39;;;;;;;5.18;4.70;;;;;;;-141.48;100.00;69781.59;5258082;28;20050;-82
2022/06/29 01:20:11;;;;;;;4.03;3.83;;;;;;;-141.48;100.00;69781.59;5258051;28;20025;-81
2022/06/29 01:22:41;;;;;;;6.45;6.07;;;;;;;-141.48;100.00;69781.59;5256395;28;20077;-82
2022/06/29 01:25:12;;;;;;;6.82;4.90;;;;;;;-141.48;100.00;69781.59;5257426;28;20024;-82
2022/06/29 01:27:42;;;;;;;5.70;5.40;;;;;;;-141.48;100.00;69781.59;5257837;28;20111;-82
2022/06/29 01:30:13;;;;;;;5.35;5.15;;;;;;;-141.48;100.00;69781.59;5257822;28;20023;-82
2022/06/29 01:32:44;;;;;;;5.15;4.85;;;;;;;-141.48;100.00;69781.59;5257795;28;20024;-82
2022/06/29 01:35:16;;;;;;;6.88;5.65;;;;;;;-141.48;100.00;69781.59;5256416;28;20042;-82
2022/06/29 01:37:46;;;;;;;9.38;5.78;;;;;;;-141.48;100.00;69781.59;5256456;28;20024;-82
2022/06/29 01:40:17;;;;;;;6.93;6.50;;;;;;;-141.48;100.00;69781.59;5258098;28;20025;-82
2022/06/29 01:42:47;;;;;;;5.90;5.20;;;;;;;-141.48;100.00;69781.59;5257715;28;20076;-81
2022/06/29 01:45:17;;;;;;;6.15;5.75;;;;;;;-141.48;100.00;69781.59;5255686;28;20078;-82
2022/06/29 01:47:48;;;;;;;5.25;4.90;;;;;;;-141.48;100.00;69781.59;5257499;28;20432;-82
2022/06/29 01:50:19;;;;;;;6.63;6.22;;;;;;;-141.48;100.00;69781.59;5257389;28;20051;-79
2022/06/29 01:52:49;;;;;;;5.97;5.53;;;;;;;-141.48;100.00;69781.59;5256607;28;20055;-82
2022/06/29 01:55:20;;;;;;;5.35;5.05;;;;;;;-141.48;100.00;69781.59;5256967;28;20116;-82
2022/06/29 01:57:50;;;;;;;7.13;6.50;;;;;;;-141.48;100.00;69781.59;5256761;28;20402;-82
2022/06/29 02:00:21;;;;;;;7.07;6.57;;;;;;;-141.48;100.00;69781.59;5257205;28;20064;-82
2022/06/29 02:02:51;;;;;;;6.72;6.15;;;;;;;-141.48;100.00;69781.59;5257029;28;20032;-81
2022/06/29 02:05:21;;;;;;;5.07;4.78;;;;;;;-141.48;100.00;69781.59;5255429;28;20024;-79
2022/06/29 02:07:52;;;;;;;6.20;5.85;;;;;;;-141.48;100.00;69781.59;5257538;28;20020;-82
2022/06/29 02:10:22;;;;;;;6.22;4.95;;;;;;;-141.48;100.00;69781.59;5257219;28;20178;-82
2022/06/29 02:12:53;;;;;;;6.57;6.20;;;;;;;-141.48;100.00;69781.59;5264367;28;20032;-81
2022/06/29 02:15:23;;;;;;;6.28;5.97;;;;;;;-141.48;100.00;69781.59;5266914;28;20039;-80
2022/06/29 02:17:54;;;;;;;6.18;5.78;;;;;;;-141.48;100.00;69781.59;5260732;28;20028;-82
2022/06/29 02:20:24;;;;;;;7.22;6.65;;;;;;;-141.48;100.00;69781.59;5256822;28;20107;-80
2022/06/29 02:22:55;;;;;;;6.18;5.57;;;;;;;-141.48;100.00;69781.59;5256578;28;20036;-81
2022/06/29 02:25:25;;;;;;;10.07;6.50;;;;;;;-141.48;100.00;69781.59;5256868;28;20027;-81
2022/06/29 02:27:56;;;;;;;7.97;5.70;;;;;;;-141.48;100.00;69781.59;5255046;28;20031;-82
2022/06/29 02:36:04;;;;;;;8.50;6.20;;;;;;;-141.48;100.00;69781.59;5257028;28;20079;-82
2022/06/29 02:38:35;;;;;;;6.68;6.13;;;;;;;-141.48;100.00;69781.59;5256902;28;20024;-82
2022/06/29 02:41:05;;;;;;;5.90;5.60;;;;;;;-141.48;100.00;69781.59;5256320;28;20048;-81
2022/06/29 02:43:37;;;;;;;6.78;6.45;;;;;;;-141.48;100.00;69781.59;5256886;28;20029;-82
2022/06/29 02:46:07;;;;;;;7.28;6.60;;;;;;;-141.48;100.00;69781.59;5255007;28;20094;-82
2022/06/29 02:48:38;;;;;;;6.10;5.50;;;;;;;-141.48;100.00;69781.59;5276267;22;20040;-62
2022/06/29 02:51:08;;;;;;;5.93;5.68;;;;;;;-141.48;100.00;69781.59;5264629;28;20031;-63
2022/06/29 02:53:39;;;;;;;6.63;6.22;;;;;;;-141.48;100.00;69781.59;5249984;28;20020;-62
2022/06/29 02:56:09;;;;;;;7.22;6.63;;;;;;;-141.48;100.00;69781.59;5250155;28;20487;-63
2022/06/29 02:58:40;;;;;;;6.75;6.35;;;;;;;-141.48;100.00;69781.59;5249849;28;20050;-63
2022/06/29 03:01:10;;;;;;;7.03;6.43;;;;;;;-141.48;100.00;69781.59;5249867;28;20024;-63
2022/06/29 03:03:41;;;;;;;6.70;6.30;;;;;;;-141.48;100.00;69781.59;5267998;28;20086;-63
2022/06/29 03:06:11;;;;;;;6.07;5.68;;;;;;;-141.48;100.00;69781.59;5250146;28;20016;-63
2022/06/29 03:08:42;;;;;;;7.03;6.65;;;;;;;-141.48;100.00;69781.59;5249939;28;20024;-62
2022/06/29 03:11:12;;;;;;;7.03;6.45;;;;;;;-141.48;100.00;69781.59;5249860;28;20039;-61
2022/06/29 03:13:43;;;;;;;8.10;7.50;;;;;;;-141.48;100.00;69781.59;5249630;28;20027;-62
2022/06/29 03:16:14;;;;;;;6.85;6.45;;;;;;;-141.48;100.00;69781.59;5249885;28;20020;-63
2022/06/29 03:18:44;;;;;;;6.05;5.68;;;;;;;-141.48;100.00;69781.59;5249745;28;20142;-62
2022/06/29 03:21:15;;;;;;;6.00;5.65;;;;;;;-141.48;100.00;69781.59;5249581;28;20026;-63
2022/06/29 03:23:45;;;;;;;6.13;5.82;;;;;;;-141.48;100.00;69781.59;5248922;28;20028;-62
2022/06/29 03:26:17;;;;;;;8.38;7.70;;;;;;;-141.48;100.00;69781.59;5249393;28;20474;-62
2022/06/29 03:28:52;;;;;;;7.20;6.70;;;;;;;-141.48;100.00;69781.59;5249361;28;20032;-63
2022/06/29 03:31:23;;;;;;;8.02;6.13;;;;;;;-141.48;100.00;69781.59;5248881;28;20020;-63
2022/06/29 03:33:53;;;;;;;9.95;8.43;;;;;;;-141.48;100.00;69781.59;5249036;28;20372;-62
2022/06/29 03:36:24;;;;;;;6.70;6.30;;;;;;;-141.48;100.00;69781.59;5249568;28;20523;-67
2022/06/29 03:38:54;;;;;;;12.43;7.63;;;;;;;-141.48;100.00;69781.59;5249115;28;20032;-63
2022/06/29 03:41:25;;;;;;;9.35;6.72;;;;;;;-141.48;100.00;69781.59;5249335;28;20388;-65
2022/06/29 03:43:55;;;;;;;7.82;6.93;;;;;;;-141.48;100.00;69781.59;5249021;28;20161;-65
2022/06/29 03:46:26;;;;;;;6.15;5.85;;;;;;;-141.48;100.00;69781.59;5249253;28;20414;-61
2022/06/29 03:48:56;;;;;;;8.27;7.55;;;;;;;-141.48;100.00;69781.59;5249237;28;20058;-63
2022/06/29 03:51:27;;;;;;;7.32;6.93;;;;;;;-141.48;100.00;69781.59;5249338;28;20365;-64
2022/06/29 03:53:57;;;;;;;7.00;6.53;;;;;;;-141.48;100.00;69781.59;5248896;28;20051;-65
2022/06/29 03:56:28;;;;;;;7.95;7.35;;;;;;;-141.48;100.00;69781.59;5249447;28;20027;-64
2022/06/29 03:58:58;;;;;;;6.55;6.10;;;;;;;-141.48;100.00;69781.59;5249197;28;20076;-63
2022/06/29 04:01:29;;;;;;;8.20;6.32;;;;;;;-141.48;100.00;69781.59;5249209;28;20488;-64
2022/06/29 04:03:59;;;;;;;7.65;6.95;;;;;;;-141.48;100.00;69781.59;5249279;28;20024;-65
2022/06/29 04:06:30;;;;;;;7.30;6.90;;;;;;;-141.48;100.00;69781.59;5249435;28;20032;-63
2022/06/29 04:09:00;;;;;;;7.75;7.35;;;;;;;-141.48;100.00;69781.59;5249294;28;20028;-65
2022/06/29 04:11:49;;;;;;;8.43;6.97;;;;;;;-141.48;100.00;69781.59;5249135;28;20112;-65
2022/06/29 04:14:25;;;;;;;7.22;6.70;;;;;;;-141.48;100.00;69781.59;5248895;28;20487;-65
2022/06/29 04:16:57;;;;;;;7.65;7.25;;;;;;;-141.48;100.00;69781.59;5249279;28;20028;-70
2022/06/29 04:19:28;;;;;;;9.45;7.03;;;;;;;-141.48;100.00;69781.59;5249081;28;20027;-64
2022/06/29 04:22:01;;;;;;;8.30;7.47;;;;;;;-141.48;100.00;69781.59;5248853;28;20024;-64
2022/06/29 04:24:32;;;;;;;9.82;7.28;;;;;;;-141.48;100.00;69781.59;5248663;28;20031;-64
2022/06/29 04:27:03;;;;;;;6.15;5.75;;;;;;;-141.48;100.00;69781.59;5249220;28;20032;-64
2022/06/29 04:29:33;;;;;;;7.63;7.15;;;;;;;-141.48;100.00;69781.59;5249088;28;20016;-65
2022/06/29 04:32:04;;;;;;;7.13;6.63;;;;;;;-141.48;100.00;69781.59;5249253;28;20027;-65
2022/06/29 04:34:35;;;;;;;9.57;7.13;;;;;;;-141.48;100.00;69781.59;5266600;28;20484;-64
2022/06/29 04:37:06;;;;;;;7.35;6.85;;;;;;;-141.48;100.00;69781.59;5248792;28;20024;-65
2022/06/29 04:39:36;;;;;;;11.38;7.00;;;;;;;-141.48;100.00;69781.59;5267123;28;20027;-64
2022/06/29 04:42:07;;;;;;;6.72;6.25;;;;;;;-141.48;100.00;69781.59;5248785;28;20024;-65
2022/06/29 04:44:37;;;;;;;7.93;6.80;;;;;;;-141.48;100.00;69781.59;5252791;28;20039;-64
2022/06/29 04:47:08;;;;;;;6.85;6.35;;;;;;;-141.48;100.00;69781.59;5252737;28;20024;-63
2022/06/29 04:49:38;;;;;;;6.47;5.45;;;;;;;-141.48;100.00;69781.59;5252798;28;20028;-64
2022/06/29 04:52:09;;;;;;;7.93;5.07;;;;;;;-141.48;100.00;69781.59;5252691;28;20392;-65
2022/06/29 04:54:40;;;;;;;7.25;6.60;;;;;;;-141.48;100.00;69781.59;5250649;28;20031;-64
2022/06/29 04:57:10;;;;;;;7.57;7.03;;;;;;;-141.48;100.00;69781.59;5252802;28;20051;-63
2022/06/29 04:59:41;;;;;;;8.75;6.53;;;;;;;-141.48;100.00;69781.59;5252755;28;20027;-63
2022/06/29 05:02:11;;;;;;;10.73;7.45;;;;;;;-141.48;100.00;69781.59;5252330;28;20112;-63
2022/06/29 05:04:41;;;;;;;8.93;7.97;;;;;;;-141.48;100.00;69781.59;5243211;28;20029;-63
2022/06/29 05:07:12;;;;;;;7.82;7.03;;;;;;;-141.48;100.00;69781.59;5246147;28;20057;-63
2022/06/29 05:09:44;;;;;;;6.70;6.10;;;;;;;-141.48;100.00;69781.59;5252110;28;20028;-62
2022/06/29 05:12:14;;;;;;;6.75;6.28;;;;;;;-141.48;100.00;69781.59;5251892;28;20017;-63
2022/06/29 05:14:45;;;;;;;7.45;6.88;;;;;;;-141.48;100.00;69781.59;5270108;28;20032;-63
2022/06/29 05:17:16;;;;;;;6.43;5.43;;;;;;;-141.48;100.00;69781.59;5251824;28;20023;-61
2022/06/29 05:19:46;;;;;;;7.18;6.60;;;;;;;-141.48;100.00;69781.59;5252129;28;20450;-63
2022/06/29 05:22:17;;;;;;;6.63;6.18;;;;;;;-141.48;100.00;69781.59;5252062;28;20103;-63
2022/06/29 05:24:47;;;;;;;8.63;7.85;;;;;;;-141.48;100.00;69781.59;5251767;28;20039;-62
2022/06/29 05:27:18;;;;;;;6.93;6.60;;;;;;;-141.48;100.00;69781.59;5270375;28;20024;-62
2022/06/29 05:29:48;;;;;;;7.90;6.35;;;;;;;-141.48;100.00;69781.59;5251984;28;20408;-62
2022/06/29 05:32:19;;;;;;;7.05;6.50;;;;;;;-141.48;100.00;69781.59;5270145;28;20065;-61
2022/06/29 05:34:49;;;;;;;5.65;5.22;;;;;;;-141.48;100.00;69781.59;5250496;28;20081;-63
2022/06/29 05:37:20;;;;;;;8.15;7.20;;;;;;;-141.48;100.00;69781.59;5250540;28;20024;-64
2022/06/29 05:39:51;;;;;;;15.35;6.85;;;;;;;-141.48;100.00;69781.59;5250662;28;20715;-64
2022/06/29 05:42:21;;;;;;;8.18;5.47;;;;;;;-141.48;100.00;69781.59;5249546;28;20547;-61
2022/06/29 05:44:52;;;;;;;6.63;5.13;;;;;;;-141.48;100.00;69781.59;5249173;28;20521;-63
2022/06/29 05:47:22;;;;;;;5.28;4.82;;;;;;;-141.48;100.00;69781.59;5268070;28;20077;-63
2022/06/29 05:49:55;;;;;;;6.97;4.18;;;;;;;-141.48;100.00;69781.59;5251997;28;20035;-61
2022/06/29 05:52:27;;;;;;;5.40;5.07;;;;;;;-141.48;100.00;69781.59;5252184;28;20529;-63
2022/06/29 05:54:58;;;;;;;4.75;4.47;;;;;;;-141.48;100.00;69781.59;5251212;28;20028;-62
2022/06/29 05:57:29;;;;;;;4.25;3.90;;;;;;;-141.48;100.00;69781.59;5251819;28;20449;-61
2022/06/29 06:00:01;;;;;;;3.67;3.47;;;;;;;-141.48;100.00;69781.59;5251607;28;20052;-62
2022/06/29 06:02:32;;;;;;;5.28;4.93;;;;;;;-141.48;100.00;69781.59;5251404;28;20035;-59
2022/06/29 06:05:02;;;;;;;6.88;4.25;;;;;;;-141.48;100.00;69781.59;5251113;28;20027;-62
2022/06/29 06:07:33;;;;;;;4.38;4.10;;;;;;;-141.48;100.00;69781.59;5269588;28;20138;-63
2022/06/29 06:10:04;;;;;;;4.93;4.53;;;;;;;-141.48;100.00;69781.59;5251437;28;20054;-60
2022/06/29 06:12:35;;;;;;;4.80;4.35;;;;;;;-141.48;100.00;69781.59;5251411;28;20403;-61
2022/06/29 06:15:06;;;;;;;3.45;3.35;;;;;;;-141.48;100.00;69781.59;5250630;28;20379;-60
2022/06/29 06:17:36;;;;;;;2.90;2.80;;;;;;;-141.48;100.00;69781.59;5250940;28;20119;-62
2022/06/29 06:20:07;;;;;;;2.78;2.67;;;;;;;-141.48;100.00;69781.59;5251129;28;20115;-61
2022/06/29 06:22:38;;;;;;;4.15;3.85;;;;;;;-141.48;100.00;69781.59;5245656;28;20086;-61
2022/06/29 06:25:08;;;;;;;3.72;3.40;;;;;;;-141.48;100.00;69781.59;5245111;28;20028;-62
2022/06/29 06:27:39;;;;;;;3.83;3.53;;;;;;;-141.48;100.00;69781.59;5246305;28;20055;-60
2022/06/29 06:30:10;;;;;;;3.78;3.35;;;;;;;-141.48;100.00;69781.59;5247073;28;20502;-62
2022/06/29 06:32:41;;;;;;;3.85;3.47;;;;;;;-141.48;100.00;69781.59;5246628;28;20024;-62
2022/06/29 06:35:11;;;;;;;7.53;3.60;;;;;;;-141.48;100.00;69781.59;5245909;28;20541;-63
2022/06/29 06:37:43;;;;;;;3.55;3.33;;;;;;;-141.48;100.00;69781.59;5247737;28;20024;-60
2022/06/29 06:43:02;;;;;;;4.30;4.10;;;;;;;-141.48;100.00;69781.59;5247735;28;20028;-63
2022/06/29 06:45:33;;;;;;;4.85;4.53;;;;;;;-141.48;100.00;69781.59;5229175;28;20032;-62
2022/06/29 06:48:04;;;;;;;3.25;3.15;;;;;;;-141.48;100.00;69781.59;5229605;28;20025;-63
2022/06/29 06:50:34;;;;;;;4.13;3.83;;;;;;;-141.48;100.00;69781.59;5229532;28;20023;-63
2022/06/29 06:53:05;;;;;;;3.95;3.60;;;;;;;-141.48;100.00;69781.59;5229062;28;20036;-61
2022/06/29 06:55:38;;;;;;;5.03;3.63;;;;;;;-141.48;100.00;69781.59;5229008;28;20039;-62
2022/06/29 06:58:09;;;;;;;4.05;3.65;;;;;;;-141.48;100.00;69781.59;5229681;28;20518;-63
2022/06/29 07:00:40;;;;;;;3.30;3.17;;;;;;;-141.48;100.00;69781.59;5229672;28;20024;-62
2022/06/29 07:03:10;;;;;;;3.97;3.78;;;;;;;-141.48;100.00;69781.59;5229481;28;20036;-61
2022/06/29 07:05:41;;;;;;;4.13;3.83;;;;;;;-141.48;100.00;69781.59;5246223;28;20152;-62
2022/06/29 07:08:11;;;;;;;4.88;3.60;;;;;;;-141.48;100.00;69781.59;5247593;28;20032;-60
2022/06/29 07:10:42;;;;;;;4.50;3.60;;;;;;;-141.48;100.00;69781.59;5247202;28;20066;-60
2022/06/29 07:13:12;;;;;;;3.00;2.90;;;;;;;-141.48;100.00;69781.59;5229037;28;20024;-61
2022/06/29 07:15:43;;;;;;;3.60;3.35;;;;;;;-141.48;100.00;69781.59;5228790;28;20485;-62
2022/06/29 07:18:13;;;;;;;4.75;4.43;;;;;;;-141.48;100.00;69781.59;5229139;28;20394;-60
2022/06/29 07:20:44;;;;;;;4.63;4.32;;;;;;;-141.48;100.00;69781.59;5228998;28;20025;-61
2022/06/29 07:23:14;;;;;;;4.75;3.50;;;;;;;-141.48;100.00;69781.59;5229141;28;20071;-60
2022/06/29 07:25:45;;;;;;;3.55;3.25;;;;;;;-141.48;100.00;69781.59;5228784;28;20050;-59
2022/06/29 07:28:15;;;;;;;4.57;4.28;;;;;;;-141.48;100.00;69781.59;5246893;28;20020;-62
2022/06/29 07:30:46;;;;;;;3.45;3.25;;;;;;;-141.48;100.00;69781.59;5246726;28;20028;-61
2022/06/29 07:33:17;;;;;;;3.97;3.60;;;;;;;-141.48;100.00;69781.59;5228568;28;20027;-62
2022/06/29 07:35:47;;;;;;;4.60;3.88;;;;;;;-141.48;100.00;69781.59;5228502;28;20032;-62
2022/06/29 07:38:19;;;;;;;3.10;2.90;;;;;;;-141.48;100.00;69781.59;5228807;28;20024;-63
2022/06/29 07:40:49;;;;;;;3.88;3.58;;;;;;;-141.48;100.00;69781.59;5228772;28;20024;-60
2022/06/29 07:43:20;;;;;;;3.80;3.50;;;;;;;-141.48;100.00;69781.59;5228678;28;20532;-60
2022/06/29 07:45:50;;;;;;;3.10;2.92;;;;;;;-141.48;100.00;69781.59;5228346;28;20028;-63
2022/06/29 07:48:20;;;;;;;5.28;3.50;;;;;;;-141.48;100.00;69781.59;5228636;28;20029;-60
2022/06/29 07:50:51;;;;;;;3.40;3.30;;;;;;;-141.48;100.00;69781.59;5228816;28;20032;-60
2022/06/29 07:53:22;;;;;;;6.28;3.80;;;;;;;-141.48;100.00;69781.59;5227681;28;20032;-59
2022/06/29 07:55:53;;;;;;;3.78;3.58;;;;;;;-141.48;100.00;69781.59;5226438;28;20031;-62
2022/06/29 07:58:23;;;;;;;2.78;2.65;;;;;;;-141.48;100.00;69781.59;5228593;28;20102;-60
2022/06/29 08:00:54;;;;;;;3.15;3.05;;;;;;;-141.48;100.00;69781.59;5228656;28;20021;-60
2022/06/29 08:03:24;;;;;;;6.15;3.92;;;;;;;-141.48;100.00;69781.59;5228470;28;20032;-62
2022/06/29 08:05:55;;;;;;;3.92;3.72;;;;;;;-141.48;100.00;69781.59;5228896;28;20021;-62
2022/06/29 08:08:25;;;;;;;4.07;3.33;;;;;;;-141.48;100.00;69781.59;5228890;28;20028;-62
2022/06/29 08:10:56;;;;;;;3.53;3.22;;;;;;;-141.48;100.00;69781.59;5246492;28;20021;-63
2022/06/29 08:13:26;;;;;;;4.03;2.83;;;;;;;-141.48;100.00;69781.59;5245925;28;20032;-62
2022/06/29 08:15:56;;;;;;;3.22;3.03;;;;;;;-141.48;100.00;69781.59;5246385;28;20063;-62
2022/06/29 08:18:27;;;;;;;5.47;3.67;;;;;;;-141.48;100.00;69781.59;5232345;28;20025;-63
2022/06/29 08:20:57;;;;;;;2.97;2.78;;;;;;;-141.48;100.00;69781.59;5232540;28;20030;-63
2022/06/29 08:23:28;;;;;;;2.03;2.03;;;;;;;-141.48;100.00;69781.59;5231933;28;20085;-64
2022/06/29 08:25:59;;;;;;;2.28;2.17;;;;;;;-141.48;100.00;69781.59;5232412;28;20048;-64
2022/06/29 08:28:29;;;;;;;2.40;2.30;;;;;;;-141.48;100.00;69781.59;5232264;28;20029;-64
2022/06/29 08:31:00;;;;;;;3.83;2.70;;;;;;;-141.48;100.00;69781.59;5232445;28;20024;-60
2022/06/29 08:33:30;;;;;;;3.20;2.47;;;;;;;-141.48;100.00;69781.59;5231621;28;20037;-63
2022/06/29 08:36:01;;;;;;;3.05;2.85;;;;;;;-141.48;100.00;69781.59;5231264;28;20028;-62
2022/06/29 08:38:31;;;;;;;4.90;4.13;;;;;;;-141.48;100.00;69781.59;5250679;28;20099;-63
2022/06/29 08:41:02;;;;;;;3.08;2.88;;;;;;;-141.48;100.00;69781.59;5232352;28;20047;-61
2022/06/29 08:43:32;;;;;;;5.55;2.60;;;;;;;-141.48;100.00;69781.59;5232205;28;20520;-62
2022/06/29 08:46:03;;;;;;;3.85;2.97;;;;;;;-141.48;100.00;69781.59;5250497;28;20048;-62
2022/06/29 08:48:43;;;;;;;2.72;2.63;;;;;;;-141.48;100.00;69781.59;5289872;22;20338;-91
2022/06/29 08:52:18;;;;;;;2.60;2.42;;;;;;;-141.48;100.00;69781.59;5217113;28;20478;-92
2022/06/29 08:59:02;;;;;;;1.92;1.83;;;;;;;-141.48;100.00;69781.59;5250517;28;20029;-90
2022/06/29 09:02:28;;;;;;;3.20;2.80;;;;;;;-141.48;100.00;69781.59;5247564;28;20037;-91
2022/06/29 09:04:59;;;;;;;2.10;2.00;;;;;;;-141.48;100.00;69781.59;5222272;28;20509;-93
2022/06/29 09:07:44;;;;;;;2.25;2.15;;;;;;;-141.48;100.00;69781.59;5214639;28;20208;-94
2022/06/29 09:13:04;;;;;;;1.50;1.50;;;;;;;-141.48;100.00;69781.59;5225991;28;20044;-63
2022/06/29 09:15:40;;;;;;;2.95;2.75;;;;;;;-141.48;100.00;69781.59;5226251;28;20508;-62
2022/06/29 09:18:23;;;;;;;2.05;1.95;;;;;;;-141.48;100.00;69781.59;5226430;28;20027;-62
2022/06/29 09:20:59;;;;;;;3.60;2.45;;;;;;;-141.48;100.00;69781.59;5226199;28;20174;-63
2022/06/29 09:23:31;;;;;;;4.25;1.98;;;;;;;-141.48;100.00;69781.59;5225971;28;20349;-62
2022/06/29 09:26:02;;;;;;;1.77;1.67;;;;;;;-141.48;100.00;69781.59;5226176;28;20029;-62
2022/06/29 09:28:33;;;;;;;4.05;2.58;;;;;;;-141.48;100.00;69781.59;5225207;28;20040;-62
2022/06/29 09:31:06;;;;;;;2.05;1.95;;;;;;;-141.48;100.00;69781.59;5225956;28;20025;-63
2022/06/29 09:33:37;;;;;;;1.90;1.83;;;;;;;-141.48;100.00;69781.59;5227021;28;20039;-62
2022/06/29 09:36:16;;;;;;;2.25;2.15;;;;;;;-141.48;100.00;69781.59;5226003;28;20456;-63
2022/06/29 09:38:47;;;;;;;2.28;2.17;;;;;;;-141.48;100.00;69781.59;5225666;28;20396;-63
2022/06/29 09:41:17;;;;;;;2.40;2.17;;;;;;;-141.48;100.00;69781.59;5225602;28;20032;-63
2022/06/29 09:43:51;;;;;;;3.55;2.25;;;;;;;-141.48;100.00;69781.59;5225490;28;20544;-62
2022/06/29 09:46:22;;;;;;;2.13;2.03;;;;;;;-141.48;100.00;69781.59;5225557;28;20029;-62
2022/06/29 09:48:54;;;;;;;1.67;1.58;;;;;;;-141.48;100.00;69781.59;5227016;28;20032;-62
2022/06/29 09:51:30;;;;;;;1.90;1.77;;;;;;;-141.48;100.00;69781.59;5225841;28;20020;-62
2022/06/29 09:54:06;;;;;;;1.77;1.67;;;;;;;-141.48;100.00;69781.59;5227060;28;20400;-63
2022/06/29 09:56:46;;;;;;;2.13;2.03;;;;;;;-141.48;100.00;69781.59;5225479;28;20442;-63
2022/06/29 10:02:37;;;;;;;1.85;1.75;;;;;;;-141.48;100.00;69781.59;5226432;28;20033;-62
2022/06/29 10:05:22;;;;;;;1.40;1.40;;;;;;;-141.48;100.00;69781.59;5223296;28;20095;-62
2022/06/29 10:07:54;;;;;;;1.60;1.50;;;;;;;-141.48;100.00;69781.59;5224429;28;20029;-62
2022/06/29 10:10:26;;;;;;;1.85;1.75;;;;;;;-141.48;100.00;69781.59;5226035;28;20119;-62
2022/06/29 10:16:22;;;;;;;2.15;2.00;;;;;;;-141.48;100.00;69781.59;5226498;28;20037;-61
2022/06/29 10:19:07;;;;;;;2.13;1.98;;;;;;;-141.48;100.00;69781.59;5225421;28;20025;-61
2022/06/29 10:21:38;;;;;;;1.85;1.73;;;;;;;-141.48;100.00;69781.59;5224671;28;20378;-61
2022/06/29 10:24:08;;;;;;;1.90;1.80;;;;;;;-141.48;100.00;69781.59;5224263;28;20025;-61
2022/06/29 10:26:39;;;;;;;3.45;2.53;;;;;;;-141.48;100.00;69781.59;5224321;28;20033;-61
2022/06/29 10:29:10;;;;;;;2.90;1.80;;;;;;;-141.48;100.00;69781.59;5224389;28;20025;-61
2022/06/29 10:31:49;;;;;;;2.40;2.28;;;;;;;-141.48;100.00;69781.59;5224320;28;20485;-61
2022/06/29 10:34:38;;;;;;;1.70;1.60;;;;;;;-141.48;100.00;69781.59;5224222;28;20254;-61
2022/06/29 10:37:11;;;;;;;8.57;2.35;;;;;;;-141.48;100.00;69781.59;5224074;28;20033;-61
2022/06/29 10:39:45;;;;;;;4.22;3.28;;;;;;;-141.48;100.00;69781.59;5223827;28;20048;-61
2022/06/29 10:45:16;;;;;;;1.58;1.58;;;;;;;-141.48;100.00;69781.59;5225059;28;20098;-60
2022/06/29 10:47:52;;;;;;;1.90;1.80;;;;;;;-141.48;100.00;69781.59;5223911;28;20508;-60
2022/06/29 10:50:28;;;;;;;2.58;2.38;;;;;;;-141.48;100.00;69781.59;5222614;28;20032;-60
2022/06/29 10:53:15;;;;;;;3.42;2.22;;;;;;;-141.48;100.00;69781.59;5224078;28;20021;-61
2022/06/29 10:55:54;;;;;;;2.47;2.28;;;;;;;-141.48;100.00;69781.59;5220893;28;20025;-61
2022/06/29 10:58:25;;;;;;;1.83;1.73;;;;;;;-141.48;100.00;69781.59;5224476;28;20309;-60
2022/06/29 11:00:56;;;;;;;5.60;1.90;;;;;;;-141.48;100.00;69781.59;5224858;28;20455;-62
2022/06/29 11:03:27;;;;;;;3.35;1.75;;;;;;;-141.48;100.00;69781.59;5223626;28;20244;-64
2022/06/29 11:12:01;;;;;;;2.38;2.20;;;;;;;-141.48;100.00;69781.59;5228770;28;20075;-63
2022/06/29 11:17:41;;;;;;;;;;;;;;;-141.48;100.00;69781.59;5228067;28;20090;-63
2022/06/29 11:20:18;;;;;;;1.75;1.70;;;;;;;-141.48;100.00;69781.59;5209869;28;19959;-62
2022/06/29 11:22:53;;;;;;;2.75;2.65;;;;;;;-141.48;100.00;69781.59;5206686;28;20036;-62
2022/06/29 11:25:23;;;;;;;5.78;1.95;;;;;;;-141.48;100.00;69781.59;5223187;28;20393;-62
2022/06/29 11:27:54;;;;;;;3.78;3.10;;;;;;;-141.48;100.00;69781.59;5224067;28;20025;-63
2022/06/29 11:30:24;;;;;;;4.80;2.22;;;;;;;-141.48;100.00;69781.59;5223863;28;20023;-63
2022/06/29 11:32:55;;;;;;;5.97;2.75;;;;;;;-141.48;100.00;69781.59;5223908;28;20332;-63
2022/06/29 11:35:26;;;;;;;3.20;2.83;;;;;;;-141.48;100.00;69781.59;5224239;28;20470;-62
2022/06/29 11:38:01;;;;;;;1.90;1.80;;;;;;;-141.48;100.00;69781.59;5225160;28;20033;-63
2022/06/29 11:40:41;;;;;;;3.80;2.38;;;;;;;-141.48;100.00;69781.59;5224463;28;20029;-63
2022/06/29 11:43:14;;;;;;;2.03;1.50;;;;;;;-141.48;100.00;69781.59;5224417;28;20055;-62
2022/06/29 11:45:48;;;;;;;2.17;2.08;;;;;;;-141.48;100.00;69781.59;5224334;28;20103;-64
2022/06/29 11:48:25;;;;;;;2.05;1.95;;;;;;;-141.48;100.00;69781.59;5223329;28;20029;-63
2022/06/29 11:51:01;;;;;;;1.80;1.70;;;;;;;-141.48;100.00;69781.59;5223087;28;20024;-63
2022/06/29 11:53:47;;;;;;;1.80;1.70;;;;;;;-141.48;100.00;69781.59;5223529;28;20472;-62
2022/06/29 11:56:22;;;;;;;2.38;2.28;;;;;;;-141.48;100.00;69781.59;5223489;28;20021;-63
2022/06/29 11:58:56;;;;;;;4.93;2.38;;;;;;;-141.48;100.00;69781.59;5222525;28;20032;-64
2022/06/29 12:01:27;;;;;;;2.10;1.67;;;;;;;-141.48;100.00;69781.59;5224482;28;20572;-62
2022/06/29 12:04:01;;;;;;;2.40;2.20;;;;;;;-141.48;100.00;69781.59;5208145;28;20062;-62
2022/06/29 12:06:36;;;;;;;2.78;1.52;;;;;;;-141.48;100.00;69781.59;5224087;28;20116;-63